Time;durP1;ratioP1;P1;durP2;ratioP2;P2;SDS_P1;SDS_P2;PMS_P1;PMS_P2;Temp;Humidity;BMP_temperature;BMP_pressure;BME280_temperature;BME280_humidity;BME280_pressure;Samples;Min_cycle;Max_cycle;Signal;HPM_P1;HPM_P2
2022/03/11 00:02:22;;;;;;;8.87;2.60;;;;;;;;;;5055801;28;20017;-75
2022/03/11 00:04:49;;;;;;;6.05;2.42;;;;;;;;;;5064945;28;20530;-75
2022/03/11 00:07:16;;;;;;;8.90;1.90;;;;;;;;;;5075600;28;20036;-75
2022/03/11 00:09:43;;;;;;;5.80;2.07;;;;;;;;;;5071737;28;20400;-76
2022/03/11 00:12:11;;;;;;;5.63;1.90;;;;;;;;;;5070489;28;20025;-75
2022/03/11 00:14:38;;;;;;;5.77;1.90;;;;;;;;;;5070094;28;20476;-75
2022/03/11 00:17:06;;;;;;;5.03;2.20;;;;;;;;;;5059896;28;20056;-75
2022/03/11 00:19:33;;;;;;;8.03;2.13;;;;;;;;;;5053314;28;20087;-75
2022/03/11 00:22:00;;;;;;;9.07;2.87;;;;;;;;;;5055344;28;20484;-75
2022/03/11 00:24:27;;;;;;;5.73;2.03;;;;;;;;;;5055558;28;20051;-75
2022/03/11 00:26:55;;;;;;;5.97;2.00;;;;;;;;;;5055437;28;20021;-75
2022/03/11 00:29:22;;;;;;;6.23;1.80;;;;;;;;;;5067501;28;20036;-75
2022/03/11 00:31:49;;;;;;;6.63;1.97;;;;;;;;;;5071861;28;20039;-75
2022/03/11 00:34:17;;;;;;;6.60;2.03;;;;;;;;;;5069950;28;20063;-75
2022/03/11 00:36:46;;;;;;;9.57;2.40;;;;;;;;;;5064877;28;20044;-75
2022/03/11 00:39:13;;;;;;;8.47;2.30;;;;;;;;;;5049397;28;20021;-74
2022/03/11 00:41:41;;;;;;;6.73;2.30;;;;;;;;;;5052407;28;20071;-75
2022/03/11 00:44:08;;;;;;;8.20;2.60;;;;;;;;;;5055404;28;20379;-75
2022/03/11 00:46:35;;;;;;;13.97;2.23;;;;;;;;;;5057555;28;20043;-75
2022/03/11 00:49:03;;;;;;;6.70;3.17;;;;;;;;;;5074853;28;20036;-75
2022/03/11 00:51:30;;;;;;;6.57;2.13;;;;;;;;;;5074896;28;20025;-75
2022/03/11 00:53:57;;;;;;;11.27;1.97;;;;;;;;;;5072240;28;20056;-75
2022/03/11 00:56:25;;;;;;;6.87;2.37;;;;;;;;;;5069225;28;20102;-75
2022/03/11 00:58:52;;;;;;;13.03;2.30;;;;;;;;;;5063631;28;20033;-75
2022/03/11 01:01:19;;;;;;;9.33;2.10;;;;;;;;;;5049521;28;20537;-75
2022/03/11 01:03:46;;;;;;;6.57;2.30;;;;;;;;;;5050199;28;20056;-75
2022/03/11 01:06:13;;;;;;;15.10;2.23;;;;;;;;;;5054573;28;20471;-75
2022/03/11 01:08:41;;;;;;;11.13;2.00;;;;;;;;;;5054521;28;20044;-75
2022/03/11 01:11:11;;;;;;;7.20;2.27;;;;;;;;;;5062024;28;20025;-74
2022/03/11 01:13:39;;;;;;;8.73;2.17;;;;;;;;;;5074538;28;20131;-74
2022/03/11 01:16:06;;;;;;;4.53;1.80;;;;;;;;;;5072239;28;20040;-75
2022/03/11 01:18:35;;;;;;;3.63;1.90;;;;;;;;;;5069413;28;20033;-75
2022/03/11 01:21:04;;;;;;;4.97;2.03;;;;;;;;;;5069029;28;20483;-75
2022/03/11 01:23:31;;;;;;;5.57;1.87;;;;;;;;;;5060219;28;20021;-75
2022/03/11 01:25:58;;;;;;;7.23;2.13;;;;;;;;;;5050392;28;20029;-75
2022/03/11 01:28:25;;;;;;;10.23;1.90;;;;;;;;;;5054146;28;20033;-74
2022/03/11 01:30:52;;;;;;;12.93;2.30;;;;;;;;;;5054139;28;20052;-74
2022/03/11 01:33:19;;;;;;;9.33;2.40;;;;;;;;;;5054137;28;20025;-75
2022/03/11 01:35:48;;;;;;;30.73;4.43;;;;;;;;;;5061274;28;20037;-75
2022/03/11 01:38:16;;;;;;;6.03;2.37;;;;;;;;;;5071620;28;20047;-73
2022/03/11 01:40:45;;;;;;;10.87;2.20;;;;;;;;;;5068334;28;20324;-74
2022/03/11 01:43:18;;;;;;;7.40;2.57;;;;;;;;;;5065331;28;20111;-73
2022/03/11 01:45:45;;;;;;;4.57;2.10;;;;;;;;;;5068208;28;20021;-73
2022/03/11 01:48:13;;;;;;;3.60;1.87;;;;;;;;;;5053546;28;20029;-74
2022/03/11 01:50:40;;;;;;;9.33;2.77;;;;;;;;;;5053930;28;20372;-73
2022/03/11 01:53:08;;;;;;;9.43;2.83;;;;;;;;;;5053746;28;20018;-73
2022/03/11 01:55:36;;;;;;;7.87;2.40;;;;;;;;;;5053752;28;20028;-72
2022/03/11 01:58:04;;;;;;;5.63;2.40;;;;;;;;;;5053188;28;20032;-74
2022/03/11 02:00:40;;;;;;;6.57;2.33;;;;;;;;;;5052029;28;20472;-73
2022/03/11 02:03:07;;;;;;;8.80;2.47;;;;;;;;;;5048444;28;20044;-73
2022/03/11 02:05:35;;;;;;;7.00;2.60;;;;;;;;;;5048311;28;20258;-73
2022/03/11 02:08:02;;;;;;;4.77;2.33;;;;;;;;;;5048450;28;20032;-73
2022/03/11 02:10:30;;;;;;;11.07;2.90;;;;;;;;;;5049495;28;20021;-73
2022/03/11 02:12:58;;;;;;;9.53;3.03;;;;;;;;;;5053244;28;20029;-72
2022/03/11 02:15:27;;;;;;;13.63;3.30;;;;;;;;;;5050637;28;20368;-71
2022/03/11 02:17:54;;;;;;;15.10;2.70;;;;;;;;;;5053651;28;20021;-73
2022/03/11 02:20:21;;;;;;;7.27;2.63;;;;;;;;;;5054250;28;20122;-73
2022/03/11 02:22:50;;;;;;;6.23;2.80;;;;;;;;;;5051812;28;20090;-74
2022/03/11 02:25:17;;;;;;;10.57;3.27;;;;;;;;;;5048274;28;20013;-74
2022/03/11 02:27:47;;;;;;;8.87;3.00;;;;;;;;;;5047944;28;20099;-73
2022/03/11 02:30:19;;;;;;;9.20;2.70;;;;;;;;;;5047934;28;20037;-73
2022/03/11 02:32:46;;;;;;;5.63;2.50;;;;;;;;;;5049305;28;20024;-73
2022/03/11 02:35:14;;;;;;;5.27;2.70;;;;;;;;;;5053082;28;20021;-73
2022/03/11 02:37:41;;;;;;;8.13;3.23;;;;;;;;;;5053163;28;20056;-73
2022/03/11 02:40:08;;;;;;;6.67;2.73;;;;;;;;;;5053142;28;20442;-72
2022/03/11 02:42:36;;;;;;;7.37;2.90;;;;;;;;;;5052768;28;20036;-72
2022/03/11 02:45:04;;;;;;;7.43;3.10;;;;;;;;;;5051543;28;20475;-73
2022/03/11 02:47:31;;;;;;;9.23;3.03;;;;;;;;;;5057472;28;20098;-72
2022/03/11 02:49:58;;;;;;;13.43;3.60;;;;;;;;;;5047911;28;20020;-74
2022/03/11 02:52:26;;;;;;;8.00;3.83;;;;;;;;;;5047543;28;20100;-73
2022/03/11 02:54:53;;;;;;;8.33;3.10;;;;;;;;;;5048497;28;20025;-73
2022/03/11 02:57:20;;;;;;;7.93;3.50;;;;;;;;;;5063667;28;20025;-72
2022/03/11 02:59:47;;;;;;;6.40;3.60;;;;;;;;;;5072890;28;20150;-73
2022/03/11 03:02:14;;;;;;;13.70;3.70;;;;;;;;;;5072607;28;20544;-73
2022/03/11 03:04:44;;;;;;;7.73;3.87;;;;;;;;;;5070578;28;20116;-73
2022/03/11 03:07:11;;;;;;;8.03;4.07;;;;;;;;;;5071432;28;20040;-73
2022/03/11 03:09:41;;;;;;;8.10;3.53;;;;;;;;;;5067529;28;20021;-73
2022/03/11 03:12:11;;;;;;;11.50;3.60;;;;;;;;;;5067224;28;20070;-73
2022/03/11 03:14:39;;;;;;;9.33;4.10;;;;;;;;;;5052326;28;20029;-73
2022/03/11 03:17:06;;;;;;;12.10;3.40;;;;;;;;;;5048067;28;20024;-73
2022/03/11 03:19:35;;;;;;;8.53;3.60;;;;;;;;;;5067509;28;20020;-73
2022/03/11 03:22:03;;;;;;;8.27;3.63;;;;;;;;;;5065921;28;20025;-72
2022/03/11 03:24:30;;;;;;;5.83;3.50;;;;;;;;;;5052409;28;20059;-73
2022/03/11 03:26:58;;;;;;;10.13;4.10;;;;;;;;;;5051323;28;20357;-73
2022/03/11 03:29:25;;;;;;;11.70;4.30;;;;;;;;;;5064056;28;20059;-73
2022/03/11 03:31:57;;;;;;;8.73;3.60;;;;;;;;;;5067269;28;20483;-74
2022/03/11 03:34:29;;;;;;;8.60;3.00;;;;;;;;;;5067551;28;20028;-73
2022/03/11 03:36:56;;;;;;;20.37;4.97;;;;;;;;;;5067436;28;20059;-73
2022/03/11 03:39:24;;;;;;;12.17;4.33;;;;;;;;;;5054212;28;20028;-73
2022/03/11 03:41:52;;;;;;;8.80;3.10;;;;;;;;;;5052227;28;20475;-73
2022/03/11 03:44:18;;;;;;;13.03;2.83;;;;;;;;;;5052287;28;20038;-73
2022/03/11 03:46:45;;;;;;;9.60;3.30;;;;;;;;;;5052235;28;20036;-73
2022/03/11 03:49:12;;;;;;;8.80;2.77;;;;;;;;;;5062954;28;20119;-73
2022/03/11 03:51:39;;;;;;;10.27;3.47;;;;;;;;;;5070978;28;20134;-74
2022/03/11 03:54:06;;;;;;;6.70;2.40;;;;;;;;;;5067119;28;20024;-73
2022/03/11 03:56:40;;;;;;;8.87;3.17;;;;;;;;;;5066829;28;20017;-73
2022/03/11 03:59:07;;;;;;;10.87;3.10;;;;;;;;;;5056697;28;20539;-73
2022/03/11 04:01:35;;;;;;;10.77;3.23;;;;;;;;;;5047635;28;20468;-73
2022/03/11 04:04:03;;;;;;;10.50;3.57;;;;;;;;;;5051901;28;20054;-73
2022/03/11 04:06:30;;;;;;;10.27;2.90;;;;;;;;;;5051784;28;20028;-73
2022/03/11 04:08:57;;;;;;;9.20;3.50;;;;;;;;;;5059790;28;20036;-73
2022/03/11 04:11:24;;;;;;;6.77;3.00;;;;;;;;;;5072116;28;20444;-73
2022/03/11 04:13:51;;;;;;;11.53;3.10;;;;;;;;;;5070829;28;20499;-73
2022/03/11 04:16:19;;;;;;;13.80;3.47;;;;;;;;;;5066860;28;20020;-73
2022/03/11 04:18:46;;;;;;;6.97;2.83;;;;;;;;;;5059863;28;20029;-73
2022/03/11 04:21:13;;;;;;;13.07;3.40;;;;;;;;;;5046772;28;20029;-73
2022/03/11 04:23:41;;;;;;;9.67;2.63;;;;;;;;;;5046842;28;20556;-73
2022/03/11 04:26:08;;;;;;;7.23;2.97;;;;;;;;;;5051473;28;20025;-73
2022/03/11 04:28:35;;;;;;;11.03;3.33;;;;;;;;;;5051679;28;20025;-73
2022/03/11 04:31:03;;;;;;;9.87;2.97;;;;;;;;;;5051543;28;20105;-73
2022/03/11 04:33:30;;;;;;;5.20;2.30;;;;;;;;;;5051831;28;20483;-73
2022/03/11 04:35:58;;;;;;;7.23;2.77;;;;;;;;;;5051004;28;20096;-73
2022/03/11 04:38:24;;;;;;;6.30;2.70;;;;;;;;;;5052515;28;20383;-73
2022/03/11 04:40:51;;;;;;;4.73;2.77;;;;;;;;;;5052341;28;20349;-73
2022/03/11 04:43:18;;;;;;;8.87;3.43;;;;;;;;;;5068151;28;20107;-73
2022/03/11 04:45:45;;;;;;;5.73;2.40;;;;;;;;;;5070042;28;20067;-73
2022/03/11 04:48:12;;;;;;;8.00;2.93;;;;;;;;;;5066835;28;20068;-73
2022/03/11 04:50:39;;;;;;;5.43;2.90;;;;;;;;;;5055150;28;20100;-73
2022/03/11 04:53:06;;;;;;;4.40;2.47;;;;;;;;;;5055124;28;20155;-73
2022/03/11 04:55:33;;;;;;;9.97;3.13;;;;;;;;;;5055138;28;20100;-73
2022/03/11 04:58:00;;;;;;;11.77;3.57;;;;;;;;;;5059286;28;20499;-70
2022/03/11 05:00:27;;;;;;;6.33;2.67;;;;;;;;;;5069627;28;20090;-70
2022/03/11 05:02:54;;;;;;;8.57;2.83;;;;;;;;;;5064816;28;20040;-72
2022/03/11 05:05:21;;;;;;;8.23;3.50;;;;;;;;;;5049648;28;20025;-71
2022/03/11 05:07:48;;;;;;;9.57;3.27;;;;;;;;;;5049612;28;20033;-74
2022/03/11 05:10:15;;;;;;;9.67;3.03;;;;;;;;;;5054365;28;20029;-73
2022/03/11 05:12:42;;;;;;;9.47;3.30;;;;;;;;;;5057106;28;20032;-75
2022/03/11 05:15:10;;;;;;;8.77;2.87;;;;;;;;;;5074632;28;20051;-74
2022/03/11 05:17:37;;;;;;;6.93;3.37;;;;;;;;;;5074697;28;20032;-73
2022/03/11 05:20:05;;;;;;;7.47;2.87;;;;;;;;;;5074852;28;20490;-74
2022/03/11 05:22:32;;;;;;;7.87;3.00;;;;;;;;;;5059679;28;20086;-71
2022/03/11 05:24:59;;;;;;;9.97;3.13;;;;;;;;;;5069487;28;20025;-74
2022/03/11 05:27:26;;;;;;;5.03;2.50;;;;;;;;;;5069424;28;20092;-73
2022/03/11 05:29:53;;;;;;;5.03;2.30;;;;;;;;;;5069058;28;20031;-73
2022/03/11 05:32:20;;;;;;;6.60;2.70;;;;;;;;;;5073464;28;20032;-73
2022/03/11 05:34:48;;;;;;;7.07;2.63;;;;;;;;;;5054443;28;20394;-73
2022/03/11 05:37:15;;;;;;;5.23;2.73;;;;;;;;;;5054351;28;20032;-74
2022/03/11 05:39:42;;;;;;;8.43;2.60;;;;;;;;;;5054262;28;20436;-73
2022/03/11 05:42:09;;;;;;;4.50;2.83;;;;;;;;;;5054303;28;20040;-73
2022/03/11 05:44:36;;;;;;;5.63;2.60;;;;;;;;;;5066878;28;20056;-74
2022/03/11 05:47:03;;;;;;;5.60;2.50;;;;;;;;;;5068675;28;20028;-73
2022/03/11 05:49:29;;;;;;;7.77;3.03;;;;;;;;;;5068493;28;20028;-73
2022/03/11 05:51:56;;;;;;;7.63;3.00;;;;;;;;;;5069218;28;20028;-73
2022/03/11 05:54:23;;;;;;;4.83;2.70;;;;;;;;;;5056688;28;20484;-73
2022/03/11 05:56:54;;;;;;;6.13;3.00;;;;;;;;;;5053876;28;20032;-73
2022/03/11 05:59:22;;;;;;;8.93;3.80;;;;;;;;;;5069216;28;20375;-73
2022/03/11 06:01:48;;;;;;;6.90;3.43;;;;;;;;;;5053549;28;20029;-74
2022/03/11 06:04:16;;;;;;;7.60;2.60;;;;;;;;;;5056698;28;20090;-73
2022/03/11 06:06:42;;;;;;;7.03;3.40;;;;;;;;;;5049399;28;20025;-73
2022/03/11 06:09:11;;;;;;;4.97;2.77;;;;;;;;;;5048669;28;20471;-73
2022/03/11 06:11:39;;;;;;;9.10;3.40;;;;;;;;;;5048479;28;20454;-73
2022/03/11 06:14:06;;;;;;;11.07;3.20;;;;;;;;;;5060713;28;20082;-73
2022/03/11 06:16:33;;;;;;;6.67;3.60;;;;;;;;;;5071824;28;20099;-73
2022/03/11 06:19:00;;;;;;;14.13;3.80;;;;;;;;;;5073355;28;20510;-73
2022/03/11 06:21:27;;;;;;;13.57;3.10;;;;;;;;;;5071862;28;20021;-73
2022/03/11 06:23:54;;;;;;;8.70;3.53;;;;;;;;;;5053301;28;20025;-73
2022/03/11 06:26:20;;;;;;;6.03;2.83;;;;;;;;;;5067473;28;20031;-73
2022/03/11 06:28:47;;;;;;;8.00;3.40;;;;;;;;;;5069495;28;20037;-73
2022/03/11 06:31:14;;;;;;;6.60;3.57;;;;;;;;;;5067917;28;20040;-74
2022/03/11 06:33:40;;;;;;;10.20;3.77;;;;;;;;;;5067884;28;20051;-73
2022/03/11 06:36:07;;;;;;;7.63;3.97;;;;;;;;;;5067964;28;20518;-73
2022/03/11 06:38:34;;;;;;;7.93;3.60;;;;;;;;;;5053944;28;20068;-75
2022/03/11 06:41:01;;;;;;;9.43;4.50;;;;;;;;;;5053085;28;20029;-73
2022/03/11 06:43:27;;;;;;;8.47;3.87;;;;;;;;;;5052995;28;20025;-68
2022/03/11 06:45:54;;;;;;;7.53;3.43;;;;;;;;;;5053133;28;20108;-73
2022/03/11 06:48:21;;;;;;;10.70;3.93;;;;;;;;;;5052647;28;20028;-72
2022/03/11 06:50:48;;;;;;;10.37;4.50;;;;;;;;;;5064645;28;20540;-72
2022/03/11 06:53:16;;;;;;;6.13;3.27;;;;;;;;;;5067727;28;20127;-72
2022/03/11 06:55:43;;;;;;;5.77;3.30;;;;;;;;;;5067894;28;20517;-71
2022/03/11 06:58:10;;;;;;;5.40;2.60;;;;;;;;;;5067799;28;20035;-73
2022/03/11 07:00:36;;;;;;;8.30;3.63;;;;;;;;;;5069352;28;20020;-70
2022/03/11 07:03:03;;;;;;;8.70;3.80;;;;;;;;;;5057233;28;20368;-72
2022/03/11 07:05:30;;;;;;;10.37;2.97;;;;;;;;;;5052029;28;20028;-74
2022/03/11 07:07:58;;;;;;;9.93;3.83;;;;;;;;;;5052443;28;20033;-71
2022/03/11 07:10:24;;;;;;;6.97;3.43;;;;;;;;;;5052570;28;20028;-71
2022/03/11 07:12:51;;;;;;;9.40;3.60;;;;;;;;;;5049660;28;20044;-76
2022/03/11 07:15:18;;;;;;;8.80;3.07;;;;;;;;;;5061950;28;20502;-72
2022/03/11 07:17:46;;;;;;;8.53;3.47;;;;;;;;;;5067462;28;20032;-70
2022/03/11 07:20:13;;;;;;;8.90;4.07;;;;;;;;;;5067737;28;20031;-71
2022/03/11 07:22:40;;;;;;;9.13;3.73;;;;;;;;;;5057916;28;20086;-70
2022/03/11 07:25:07;;;;;;;10.97;4.23;;;;;;;;;;5052486;28;20029;-73
2022/03/11 07:27:34;;;;;;;5.60;3.37;;;;;;;;;;5052691;28;20047;-74
2022/03/11 07:30:00;;;;;;;8.30;3.50;;;;;;;;;;5052289;28;20029;-74
2022/03/11 07:32:27;;;;;;;6.07;3.40;;;;;;;;;;5052118;28;20025;-74
2022/03/11 07:34:54;;;;;;;8.50;4.40;;;;;;;;;;5049798;28;20192;-73
2022/03/11 07:37:21;;;;;;;9.97;3.90;;;;;;;;;;5046661;28;20376;-73
2022/03/11 07:39:47;;;;;;;6.93;3.83;;;;;;;;;;5065105;28;20028;-73
2022/03/11 07:42:14;;;;;;;8.40;3.93;;;;;;;;;;5066891;28;20016;-73
2022/03/11 07:44:42;;;;;;;6.07;3.27;;;;;;;;;;5068695;28;20025;-73
2022/03/11 07:47:08;;;;;;;8.63;3.70;;;;;;;;;;5072000;28;20086;-73
2022/03/11 07:49:35;;;;;;;4.57;2.70;;;;;;;;;;5072147;28;20099;-73
2022/03/11 07:52:02;;;;;;;5.93;2.67;;;;;;;;;;5052114;28;20447;-73
2022/03/11 07:54:29;;;;;;;8.07;3.33;;;;;;;;;;5051156;28;20105;-73
2022/03/11 07:56:56;;;;;;;8.17;3.70;;;;;;;;;;5050081;28;20036;-73
2022/03/11 07:59:22;;;;;;;8.43;4.03;;;;;;;;;;5046900;28;20100;-73
2022/03/11 08:01:49;;;;;;;9.27;3.20;;;;;;;;;;5046814;28;20056;-74
2022/03/11 08:04:17;;;;;;;6.63;3.00;;;;;;;;;;5064086;28;20104;-73
2022/03/11 08:06:45;;;;;;;6.33;3.13;;;;;;;;;;5067767;28;20413;-73
2022/03/11 08:09:12;;;;;;;9.30;3.90;;;;;;;;;;5071488;28;20379;-73
2022/03/11 08:11:39;;;;;;;5.23;3.17;;;;;;;;;;5072405;28;20025;-73
2022/03/11 08:14:05;;;;;;;7.73;4.13;;;;;;;;;;5075808;28;20089;-73
2022/03/11 08:16:32;;;;;;;7.10;3.57;;;;;;;;;;5058478;28;20029;-73
2022/03/11 08:18:59;;;;;;;8.83;3.47;;;;;;;;;;5054052;28;20107;-73
2022/03/11 08:21:26;;;;;;;8.17;3.63;;;;;;;;;;5050417;28;20071;-73
2022/03/11 08:23:53;;;;;;;8.10;3.67;;;;;;;;;;5050382;28;20025;-73
2022/03/11 08:26:19;;;;;;;8.90;3.30;;;;;;;;;;5050075;28;20110;-73
2022/03/11 08:28:46;;;;;;;10.97;3.70;;;;;;;;;;5066970;28;20953;-73
2022/03/11 08:31:14;;;;;;;7.17;3.20;;;;;;;;;;5073842;28;20415;-73
2022/03/11 08:33:41;;;;;;;10.17;3.60;;;;;;;;;;5075584;28;20113;-73
2022/03/11 08:36:07;;;;;;;6.03;3.43;;;;;;;;;;5075579;28;20024;-73
2022/03/11 08:38:34;;;;;;;11.37;3.53;;;;;;;;;;5075175;28;20539;-74
2022/03/11 08:41:03;;;;;;;8.93;4.00;;;;;;;;;;5055743;28;20403;-73
2022/03/11 08:43:30;;;;;;;10.87;3.73;;;;;;;;;;5049926;28;20036;-73
2022/03/11 08:45:57;;;;;;;7.20;3.13;;;;;;;;;;5049946;28;20064;-73
2022/03/11 08:48:24;;;;;;;6.20;3.50;;;;;;;;;;5049910;28;20056;-73
2022/03/11 08:50:50;;;;;;;10.50;4.60;;;;;;;;;;5050880;28;20100;-73
2022/03/11 08:53:19;;;;;;;12.57;4.20;;;;;;;;;;5075195;28;20051;-73
2022/03/11 08:55:46;;;;;;;7.47;3.60;;;;;;;;;;5074640;28;20491;-73
2022/03/11 08:58:13;;;;;;;7.43;3.50;;;;;;;;;;5074909;28;20021;-73
2022/03/11 09:00:41;;;;;;;5.77;3.50;;;;;;;;;;5061518;28;20039;-73
2022/03/11 09:03:08;;;;;;;6.67;3.23;;;;;;;;;;5053782;28;20075;-73
2022/03/11 09:05:34;;;;;;;7.13;3.50;;;;;;;;;;5049668;28;20021;-73
2022/03/11 09:08:01;;;;;;;10.27;3.33;;;;;;;;;;5049506;28;20056;-73
2022/03/11 09:10:29;;;;;;;6.87;3.20;;;;;;;;;;5060674;28;20082;-73
2022/03/11 09:12:55;;;;;;;8.23;3.80;;;;;;;;;;5069324;28;20032;-73
2022/03/11 09:15:22;;;;;;;5.67;3.90;;;;;;;;;;5074620;28;20024;-74
2022/03/11 09:17:49;;;;;;;6.67;3.43;;;;;;;;;;5072752;28;20027;-73
2022/03/11 09:20:16;;;;;;;6.17;3.20;;;;;;;;;;5074342;28;20021;-73
2022/03/11 09:22:42;;;;;;;9.33;2.90;;;;;;;;;;5054400;28;20116;-73
2022/03/11 09:25:11;;;;;;;10.23;3.57;;;;;;;;;;5053311;28;20017;-73
2022/03/11 09:27:38;;;;;;;6.20;3.50;;;;;;;;;;5048604;28;20044;-73
2022/03/11 09:30:05;;;;;;;12.60;4.50;;;;;;;;;;5049261;28;20303;-73
2022/03/11 09:32:32;;;;;;;10.70;4.30;;;;;;;;;;5065971;28;20313;-73
2022/03/11 09:34:59;;;;;;;9.47;3.53;;;;;;;;;;5069104;28;20111;-73
2022/03/11 09:37:27;;;;;;;8.43;3.33;;;;;;;;;;5073978;28;21132;-73
2022/03/11 09:39:54;;;;;;;5.93;3.40;;;;;;;;;;5074207;28;20270;-73
2022/03/11 09:42:21;;;;;;;10.00;3.10;;;;;;;;;;5073860;28;20254;-73
2022/03/11 09:44:52;;;;;;;7.97;4.13;;;;;;;;;;5054684;28;20067;-73
2022/03/11 09:47:19;;;;;;;9.73;3.40;;;;;;;;;;5053840;28;20310;-73
2022/03/11 09:49:47;;;;;;;6.13;3.40;;;;;;;;;;5067477;28;20261;-73
2022/03/11 09:52:14;;;;;;;9.27;3.33;;;;;;;;;;5068749;28;20713;-73
2022/03/11 09:54:41;;;;;;;11.13;3.73;;;;;;;;;;5068671;28;20285;-73
2022/03/11 09:57:07;;;;;;;8.27;3.77;;;;;;;;;;5068550;28;20261;-73
2022/03/11 09:59:34;;;;;;;6.47;4.00;;;;;;;;;;5056807;28;20760;-73
2022/03/11 10:02:01;;;;;;;9.27;4.50;;;;;;;;;;5053655;28;20274;-73
2022/03/11 10:04:28;;;;;;;7.17;3.10;;;;;;;;;;5053674;28;20262;-73
2022/03/11 10:06:55;;;;;;;9.13;4.40;;;;;;;;;;5053739;28;20593;-73
2022/03/11 10:09:22;;;;;;;6.47;2.60;;;;;;;;;;5072816;28;20272;-73
2022/03/11 10:12:00;;;;;;;8.00;4.00;;;;;;;;;;5068063;28;20754;-73
2022/03/11 10:14:31;;;;;;;6.87;3.77;;;;;;;;;;5068256;28;20348;-73
2022/03/11 10:16:59;;;;;;;6.60;3.47;;;;;;;;;;5068275;28;20341;-73
2022/03/11 10:19:26;;;;;;;6.33;3.93;;;;;;;;;;5048825;28;20273;-73
2022/03/11 10:21:56;;;;;;;10.00;3.90;;;;;;;;;;5053164;28;20278;-73
2022/03/11 10:24:23;;;;;;;9.90;3.67;;;;;;;;;;5053213;28;20249;-72
2022/03/11 10:26:51;;;;;;;8.23;3.67;;;;;;;;;;5053236;28;20254;-73
2022/03/11 10:29:19;;;;;;;4.73;2.77;;;;;;;;;;5053091;28;20673;-73
2022/03/11 10:31:47;;;;;;;7.87;3.30;;;;;;;;;;5071910;28;20452;-73
2022/03/11 10:34:16;;;;;;;8.27;3.43;;;;;;;;;;5067698;28;20257;-73
2022/03/11 10:36:56;;;;;;;5.83;2.83;;;;;;;;;;5068043;28;20266;-73
2022/03/11 10:39:26;;;;;;;9.73;3.20;;;;;;;;;;5067809;28;20252;-73
2022/03/11 10:41:54;;;;;;;5.67;3.63;;;;;;;;;;5065490;28;20728;-73
2022/03/11 10:44:22;;;;;;;7.20;4.37;;;;;;;;;;5052913;28;20258;-73
2022/03/11 10:46:49;;;;;;;6.20;3.30;;;;;;;;;;5052686;28;20764;-73
2022/03/11 10:49:31;;;;;;;5.50;3.47;;;;;;;;;;5052732;28;20254;-73
2022/03/11 10:51:59;;;;;;;5.23;3.47;;;;;;;;;;5052906;28;20266;-73
2022/03/11 10:54:27;;;;;;;12.03;4.93;;;;;;;;;;5051718;28;20651;-73
2022/03/11 10:56:54;;;;;;;7.43;3.67;;;;;;;;;;5047387;28;20265;-73
2022/03/11 10:59:26;;;;;;;9.60;3.70;;;;;;;;;;5047558;28;20261;-73
2022/03/11 11:01:53;;;;;;;10.33;4.30;;;;;;;;;;5046961;28;20312;-72
2022/03/11 11:04:20;;;;;;;6.17;3.20;;;;;;;;;;5047962;28;20353;-73
2022/03/11 11:06:47;;;;;;;5.13;2.90;;;;;;;;;;5062567;28;20806;-73
2022/03/11 11:09:17;;;;;;;7.30;3.53;;;;;;;;;;5072557;28;20259;-73
2022/03/11 11:11:44;;;;;;;5.07;3.13;;;;;;;;;;5072669;28;20327;-73
2022/03/11 11:14:12;;;;;;;7.37;3.40;;;;;;;;;;5072478;28;20253;-72
2022/03/11 11:16:40;;;;;;;9.90;3.97;;;;;;;;;;5070946;28;20257;-73
2022/03/11 11:19:11;;;;;;;6.03;3.37;;;;;;;;;;5054696;28;20272;-73
2022/03/11 11:21:39;;;;;;;6.83;3.40;;;;;;;;;;5047120;28;20344;-73
2022/03/11 11:24:11;;;;;;;5.77;3.57;;;;;;;;;;5047052;28;20761;-73
2022/03/11 11:26:40;;;;;;;5.90;3.40;;;;;;;;;;5047948;28;20272;-73
2022/03/11 11:29:07;;;;;;;8.67;3.80;;;;;;;;;;5051720;28;20293;-72
2022/03/11 11:31:34;;;;;;;9.53;4.63;;;;;;;;;;5068401;28;20840;-73
2022/03/11 11:34:01;;;;;;;7.63;3.97;;;;;;;;;;5072416;28;20248;-73
2022/03/11 11:36:35;;;;;;;10.17;3.63;;;;;;;;;;5072186;28;20312;-73
2022/03/11 11:39:04;;;;;;;8.33;3.20;;;;;;;;;;5070744;28;20747;-73
2022/03/11 11:41:31;;;;;;;8.03;3.20;;;;;;;;;;5066889;28;20261;-72
2022/03/11 11:44:00;;;;;;;8.33;3.37;;;;;;;;;;5047051;28;20270;-73
2022/03/11 11:46:27;;;;;;;6.13;3.67;;;;;;;;;;5047105;28;20753;-73
2022/03/11 11:48:54;;;;;;;9.03;3.50;;;;;;;;;;5051812;28;20321;-73
2022/03/11 11:51:22;;;;;;;5.50;3.30;;;;;;;;;;5056188;28;20258;-73
2022/03/11 11:53:51;;;;;;;8.83;3.57;;;;;;;;;;5058371;28;20269;-73
2022/03/11 11:56:38;;;;;;;7.33;2.43;;;;;;;;;;5075752;28;20256;-72
2022/03/11 11:59:20;;;;;;;6.17;3.43;;;;;;;;;;5076060;28;20736;-73
2022/03/11 12:01:48;;;;;;;8.47;3.43;;;;;;;;;;5073587;28;20307;-73
2022/03/11 12:04:33;;;;;;;6.43;3.47;;;;;;;;;;5070473;28;20266;-73
2022/03/11 12:07:04;;;;;;;6.47;3.20;;;;;;;;;;5059606;28;20298;-73
2022/03/11 12:09:47;;;;;;;6.70;2.77;;;;;;;;;;5050878;28;20028;-73
2022/03/11 12:14:58;;;;;;;7.83;3.77;;;;;;;;;;5055722;28;20254;-73
2022/03/11 12:17:44;;;;;;;9.43;4.30;;;;;;;;;;5055845;28;20318;-73
2022/03/11 12:20:35;;;;;;;9.73;3.50;;;;;;;;;;5072679;28;20398;-73
2022/03/11 12:23:17;;;;;;;8.97;3.50;;;;;;;;;;5075111;28;20021;-73
2022/03/11 12:25:50;;;;;;;6.83;4.03;;;;;;;;;;5070090;28;20253;-73
2022/03/11 12:28:18;;;;;;;8.93;4.13;;;;;;;;;;5070126;28;20787;-73
2022/03/11 12:30:48;;;;;;;10.33;4.00;;;;;;;;;;5068533;28;20261;-73
2022/03/11 12:33:15;;;;;;;10.03;4.17;;;;;;;;;;5070809;28;20269;-73
2022/03/11 12:35:43;;;;;;;8.80;4.80;;;;;;;;;;5075441;28;20288;-73
2022/03/11 12:38:14;;;;;;;10.03;3.80;;;;;;;;;;5075224;28;20747;-73
2022/03/11 12:40:41;;;;;;;7.03;3.73;;;;;;;;;;5075223;28;20258;-73
2022/03/11 12:43:11;;;;;;;6.13;3.80;;;;;;;;;;5070488;28;20273;-73
2022/03/11 12:45:45;;;;;;;7.17;3.73;;;;;;;;;;5053550;28;20254;-73
2022/03/11 12:48:12;;;;;;;8.90;3.80;;;;;;;;;;5049957;28;20290;-73
2022/03/11 12:50:40;;;;;;;8.40;4.27;;;;;;;;;;5049915;28;20262;-73
2022/03/11 12:53:08;;;;;;;7.73;4.10;;;;;;;;;;5049761;28;20335;-73
2022/03/11 12:55:36;;;;;;;7.53;3.40;;;;;;;;;;5056713;28;20277;-73
2022/03/11 12:58:07;;;;;;;11.20;3.40;;;;;;;;;;5074993;28;20241;-73
2022/03/11 13:00:36;;;;;;;7.40;4.30;;;;;;;;;;5075059;28;20265;-73
2022/03/11 13:03:06;;;;;;;13.63;6.30;;;;;;;;;;5074733;28;20288;-73
2022/03/11 13:05:33;;;;;;;8.73;5.73;;;;;;;;;;5074559;28;20268;-73
2022/03/11 13:08:01;;;;;;;9.10;5.23;;;;;;;;;;5066139;28;20413;-73
2022/03/11 13:10:28;;;;;;;8.00;4.73;;;;;;;;;;5049492;28;20269;-73
2022/03/11 13:12:56;;;;;;;10.60;4.73;;;;;;;;;;5049478;28;20408;-73
2022/03/11 13:15:27;;;;;;;14.10;4.87;;;;;;;;;;5049441;28;20269;-73
2022/03/11 13:18:01;;;;;;;20.73;6.33;;;;;;;;;;5050260;28;20250;-73
2022/03/11 13:20:42;;;;;;;12.57;5.17;;;;;;;;;;5066756;28;20273;-73
2022/03/11 13:23:15;;;;;;;13.53;5.00;;;;;;;;;;5074514;28;20344;-73
2022/03/11 13:25:45;;;;;;;14.83;5.63;;;;;;;;;;5074557;28;20260;-73
2022/03/11 13:28:12;;;;;;;9.40;4.43;;;;;;;;;;5074011;28;20334;-73
2022/03/11 13:30:40;;;;;;;16.57;6.10;;;;;;;;;;5066587;28;21087;-73
2022/03/11 13:33:15;;;;;;;21.90;6.03;;;;;;;;;;5049046;28;20323;-73
2022/03/11 13:35:42;;;;;;;10.77;5.57;;;;;;;;;;5049106;28;20657;-73
2022/03/11 13:38:09;;;;;;;11.70;5.60;;;;;;;;;;5049013;28;20084;-73
2022/03/11 13:40:36;;;;;;;16.17;5.80;;;;;;;;;;5053832;28;20265;-73
2022/03/11 13:43:04;;;;;;;11.27;5.97;;;;;;;;;;5074111;28;20738;-73
2022/03/11 13:45:31;;;;;;;15.97;5.50;;;;;;;;;;5074080;28;20352;-73
2022/03/11 13:48:02;;;;;;;17.73;6.03;;;;;;;;;;5073948;28;20338;-73
2022/03/11 13:50:29;;;;;;;19.40;4.70;;;;;;;;;;5058253;28;20262;-73
2022/03/11 13:52:57;;;;;;;18.53;5.30;;;;;;;;;;5050942;28;20021;-72
2022/03/11 13:55:38;;;;;;;9.57;4.87;;;;;;;;;;5048502;28;20056;-72
2022/03/11 13:58:21;;;;;;;10.40;5.00;;;;;;;;;;5048611;28;20056;-72
2022/03/11 14:00:50;;;;;;;10.67;5.13;;;;;;;;;;5066063;28;20025;-72
2022/03/11 14:03:20;;;;;;;10.33;5.30;;;;;;;;;;5071861;28;20027;-72
2022/03/11 14:05:48;;;;;;;9.13;5.20;;;;;;;;;;5073743;28;20030;-72
2022/03/11 14:08:25;;;;;;;14.47;7.37;;;;;;;;;;5073699;28;20032;-72
2022/03/11 14:10:52;;;;;;;14.37;6.53;;;;;;;;;;5070080;28;20081;-72
2022/03/11 14:13:25;;;;;;;13.63;5.43;;;;;;;;;;5053750;28;20108;-72
2022/03/11 14:15:53;;;;;;;8.27;4.97;;;;;;;;;;5048707;28;20032;-72
2022/03/11 14:18:22;;;;;;;14.33;5.93;;;;;;;;;;5048236;28;20492;-72
2022/03/11 14:20:48;;;;;;;11.27;5.40;;;;;;;;;;5048305;28;20583;-72
2022/03/11 14:23:15;;;;;;;8.47;5.10;;;;;;;;;;5051549;28;20367;-72
2022/03/11 14:25:42;;;;;;;10.33;5.40;;;;;;;;;;5072344;28;20413;-72
2022/03/11 14:28:10;;;;;;;9.70;5.10;;;;;;;;;;5073003;28;20032;-72
2022/03/11 14:30:37;;;;;;;18.37;6.57;;;;;;;;;;5073123;28;20539;-73
2022/03/11 14:33:07;;;;;;;11.77;6.70;;;;;;;;;;5073209;28;20036;-72
2022/03/11 14:35:34;;;;;;;20.50;7.50;;;;;;;;;;5058493;28;20035;-72
2022/03/11 14:38:02;;;;;;;15.80;7.27;;;;;;;;;;5067422;28;20142;-73
2022/03/11 14:40:29;;;;;;;18.17;7.53;;;;;;;;;;5066361;28;20052;-73
2022/03/11 14:42:56;;;;;;;16.87;7.37;;;;;;;;;;5066570;28;20021;-72
2022/03/11 14:45:23;;;;;;;21.70;8.83;;;;;;;;;;5066504;28;20032;-73
2022/03/11 14:47:50;;;;;;;20.73;9.50;;;;;;;;;;5065879;28;20041;-72
2022/03/11 14:50:17;;;;;;;18.17;8.43;;;;;;;;;;5052764;28;20025;-73